Terminal Aerodrome Forecast
Issued by NWS Sioux Falls, SD

Home | Current Version | Previous Version | Text Only | Print | Product List | Glossary On
Versions: 1 2 3 4 5 6 7 8 9 10 11 12 13 14 15 16 17 18
000
FTUS43 KFSD 180400 AAA
TAFHON
TAF AMD
KHON 180400Z 1804/1824 29009KT P6SM SCT020 BKN040
     FM181500 24006KT P6SM SCT050
     FM182100 17008KT P6SM OVC100=

USA.gov is the U.S. government's official web portal to all federal, state and local government web resources and services.